Time;durP1;ratioP1;P1;durP2;ratioP2;P2;SDS_P1;SDS_P2;PMS_P1;PMS_P2;Temp;Humidity;BMP_temperature;BMP_pressure;BME280_temperature;BME280_humidity;BME280_pressure;Samples;Min_cycle;Max_cycle;Signal;HPM_P1;HPM_P2
2022/10/23 00:00:52;;;;;;;15.33;11.13;;;;;;;13.78;100.00;101772.50;2055245;28;20447;-61
2022/10/23 00:01:52;;;;;;;15.10;10.30;;;;;;;13.77;100.00;101767.34;2056026;28;20942;-61
2022/10/23 00:02:53;;;;;;;18.47;10.80;;;;;;;13.84;100.00;101778.38;2056370;28;20198;-61
2022/10/23 00:04:00;;;;;;;17.67;10.20;;;;;;;13.91;100.00;101781.00;2056066;28;20685;-61
2022/10/23 00:05:00;;;;;;;16.20;10.50;;;;;;;14.02;100.00;101781.59;2055988;28;20199;-61
2022/10/23 00:06:03;;;;;;;13.47;9.33;;;;;;;14.08;100.00;101782.69;2056292;28;20519;-61
2022/10/23 00:07:04;;;;;;;16.50;9.40;;;;;;;14.20;100.00;101784.84;2055707;28;20186;-60
2022/10/23 00:08:04;;;;;;;15.20;9.60;;;;;;;14.23;100.00;101784.78;2056212;28;20547;-60
2022/10/23 00:09:07;;;;;;;13.97;9.00;;;;;;;14.29;100.00;101777.47;2056165;28;20282;-61
2022/10/23 00:10:08;;;;;;;15.73;9.07;;;;;;;14.38;100.00;101777.69;2056161;28;21086;-61
2022/10/23 00:11:15;;;;;;;16.47;9.87;;;;;;;14.34;100.00;101767.84;2055248;28;20465;-60
2022/10/23 00:12:16;;;;;;;15.13;9.77;;;;;;;14.37;100.00;101759.41;2056311;28;20449;-61
2022/10/23 00:13:16;;;;;;;14.00;9.10;;;;;;;14.45;100.00;101774.75;2055673;28;20453;-61
2022/10/23 00:14:20;;;;;;;14.00;9.40;;;;;;;14.18;100.00;101725.91;2056095;28;20313;-61
2022/10/23 00:15:22;;;;;;;15.87;8.93;;;;;;;14.51;100.00;101764.66;2055234;28;20207;-61
2022/10/23 00:16:22;;;;;;;13.47;9.33;;;;;;;14.31;100.00;101732.44;2056163;28;20473;-60
2022/10/23 00:17:22;;;;;;;16.03;9.30;;;;;;;14.56;100.00;101764.13;2055769;28;20441;-61
2022/10/23 00:18:23;;;;;;;12.90;9.27;;;;;;;14.62;100.00;101768.00;2055876;28;20190;-60
2022/10/23 00:19:23;;;;;;;14.80;9.23;;;;;;;14.65;100.00;101766.34;2055553;28;20222;-61
2022/10/23 00:20:24;;;;;;;15.40;9.80;;;;;;;14.68;100.00;101769.06;2056135;28;20202;-61
2022/10/23 00:21:25;;;;;;;16.27;9.20;;;;;;;14.73;100.00;101767.75;2056104;28;20187;-61
2022/10/23 00:22:26;;;;;;;12.97;8.73;;;;;;;14.87;100.00;101781.41;2056053;28;20190;-61
2022/10/23 00:23:26;;;;;;;13.83;9.00;;;;;;;14.37;100.00;101709.19;2055682;28;20453;-61
2022/10/23 00:24:27;;;;;;;11.03;8.70;;;;;;;14.96;100.00;101787.16;2056265;28;20191;-61
2022/10/23 00:25:27;;;;;;;15.30;8.40;;;;;;;15.07;100.00;101784.91;2055374;28;20659;-61
2022/10/23 00:26:28;;;;;;;10.87;7.60;;;;;;;15.15;100.00;101775.91;2056183;28;20194;-61
2022/10/23 00:27:28;;;;;;;10.80;7.80;;;;;;;15.19;100.00;101775.81;2055423;28;20193;-61
2022/10/23 00:28:29;;;;;;;13.93;8.07;;;;;;;15.25;100.00;101782.47;2055370;28;20723;-61
2022/10/23 00:29:29;;;;;;;14.13;7.80;;;;;;;15.33;100.00;101773.53;2056156;28;20253;-61
2022/10/23 00:30:30;;;;;;;13.63;8.23;;;;;;;15.35;100.00;101771.06;2056179;28;20725;-62
2022/10/23 00:31:30;;;;;;;11.57;8.00;;;;;;;15.31;100.00;101761.94;2055053;28;20250;-61
2022/10/23 00:32:31;;;;;;;13.27;8.33;;;;;;;15.42;100.00;101761.72;2056059;28;20201;-61
2022/10/23 00:33:32;;;;;;;15.77;9.07;;;;;;;15.51;100.00;101764.66;2055566;28;20477;-60
2022/10/23 00:34:32;;;;;;;13.97;8.90;;;;;;;15.54;100.00;101772.97;2055662;28;20191;-61
2022/10/23 00:35:33;;;;;;;13.90;8.73;;;;;;;15.54;100.00;101769.38;2055561;28;20337;-62
2022/10/23 00:36:33;;;;;;;15.17;9.23;;;;;;;15.57;100.00;101777.66;2055429;28;20548;-61
2022/10/23 00:37:33;;;;;;;12.63;8.40;;;;;;;15.58;100.00;101787.63;2055946;28;20825;-62
2022/10/23 00:38:34;;;;;;;15.73;9.47;;;;;;;15.63;100.00;101786.31;2054594;28;20279;-61
2022/10/23 00:39:35;;;;;;;13.63;9.03;;;;;;;15.65;100.00;101784.66;2055744;28;20210;-61
2022/10/23 00:40:37;;;;;;;15.50;9.10;;;;;;;15.68;100.00;101783.00;2056410;28;20262;-61
2022/10/23 00:41:37;;;;;;;17.23;9.43;;;;;;;15.70;100.00;101784.13;2055863;28;20567;-61
2022/10/23 00:42:38;;;;;;;15.53;8.83;;;;;;;14.90;100.00;101663.31;2056036;28;20453;-61
2022/10/23 00:43:54;;;;;;;14.87;9.03;;;;;;;15.69;100.00;101785.34;2055790;28;20191;-61
2022/10/23 00:44:54;;;;;;;14.50;8.70;;;;;;;15.71;100.00;101776.50;2056135;28;20535;-61
2022/10/23 00:45:56;;;;;;;17.50;9.07;;;;;;;15.73;100.00;101776.88;2056369;28;20444;-60
2022/10/23 00:46:57;;;;;;;14.67;8.63;;;;;;;15.73;100.00;101782.47;2055982;28;20199;-61
2022/10/23 00:47:59;;;;;;;14.43;9.20;;;;;;;15.75;100.00;101788.38;2055922;28;20440;-61
2022/10/23 00:49:01;;;;;;;14.80;8.50;;;;;;;15.73;100.00;101780.44;2055630;28;20454;-62
2022/10/23 00:50:02;;;;;;;15.43;9.70;;;;;;;15.66;100.00;101766.66;2055375;28;20434;-61
2022/10/23 00:51:03;;;;;;;11.10;8.67;;;;;;;15.81;100.00;101787.41;2055622;28;20442;-61
2022/10/23 00:52:06;;;;;;;14.47;8.40;;;;;;;15.86;100.00;101792.47;2055895;28;20966;-61
2022/10/23 00:53:10;;;;;;;12.47;8.80;;;;;;;15.85;100.00;101787.31;2055733;28;20190;-61
2022/10/23 00:54:13;;;;;;;12.27;8.83;;;;;;;15.39;100.00;101729.88;2056041;28;20517;-62
2022/10/23 00:55:15;;;;;;;13.77;8.77;;;;;;;15.88;100.00;101794.81;2056181;28;20438;-61
2022/10/23 00:56:15;;;;;;;13.17;8.53;;;;;;;15.90;100.00;101795.16;2055812;28;20423;-62
2022/10/23 00:57:16;;;;;;;14.20;8.37;;;;;;;15.95;100.00;101789.03;2055929;28;20479;-61
2022/10/23 00:58:18;;;;;;;13.03;8.43;;;;;;;15.97;100.00;101792.16;2055963;28;20573;-61
2022/10/23 00:59:19;;;;;;;11.87;8.30;;;;;;;16.00;100.00;101791.28;2055876;28;20208;-61
2022/10/23 01:00:28;;;;;;;14.63;8.27;;;;;;;16.00;100.00;101789.28;2055732;28;20481;-62
2022/10/23 01:01:29;;;;;;;12.60;8.40;;;;;;;16.02;100.00;101786.81;2055754;28;20653;-61
2022/10/23 01:02:29;;;;;;;16.03;8.67;;;;;;;16.03;100.00;101799.56;2056081;28;20818;-61
2022/10/23 01:03:30;;;;;;;14.30;8.13;;;;;;;16.03;100.00;101793.22;2055896;28;20197;-62
2022/10/23 01:04:31;;;;;;;13.57;8.70;;;;;;;16.04;100.00;101798.34;2055787;28;20219;-61
2022/10/23 01:05:44;;;;;;;13.57;8.13;;;;;;;15.46;100.00;101700.94;2056081;28;20221;-61
2022/10/23 01:06:56;;;;;;;15.40;8.20;;;;;;;15.52;100.00;101702.75;2056146;28;20427;-61
2022/10/23 01:08:05;;;;;;;13.33;8.53;;;;;;;16.13;100.00;101789.34;2055945;28;20481;-61
2022/10/23 01:09:37;;;;;;;13.57;8.30;;;;;;;16.16;100.00;101799.63;2055249;28;20433;-61
2022/10/23 01:10:46;;;;;;;14.87;8.90;;;;;;;15.25;100.00;101643.63;2055206;28;20846;-62
2022/10/23 01:12:14;;;;;;;17.90;8.63;;;;;;;16.20;100.00;101801.13;2054496;28;20439;-61
2022/10/23 01:13:25;;;;;;;13.27;8.40;;;;;;;15.73;100.00;101715.38;2055648;28;21079;-61
2022/10/23 01:14:41;;;;;;;16.77;9.43;;;;;;;15.67;100.00;101705.97;2055809;28;20517;-61
2022/10/23 01:16:08;;;;;;;13.60;9.00;;;;;;;16.33;100.00;101806.72;2055041;28;20831;-61
2022/10/23 01:17:19;;;;;;;13.23;8.30;;;;;;;16.30;100.00;101808.38;2055929;28;20444;-61
2022/10/23 01:18:53;;;;;;;14.40;7.83;;;;;;;16.31;100.00;101800.78;2055659;28;20425;-61
2022/10/23 01:20:14;;;;;;;13.40;8.83;;;;;;;16.32;100.00;101799.56;2046439;28;20664;-62
2022/10/23 01:21:30;;;;;;;12.00;8.13;;;;;;;16.34;100.00;101797.13;2054778;28;20541;-61
2022/10/23 01:22:45;;;;;;;12.80;8.63;;;;;;;16.33;100.00;101798.31;2055475;28;20937;-61
2022/10/23 01:24:10;;;;;;;15.50;8.83;;;;;;;16.44;100.00;101796.06;2054486;28;20797;-61
2022/10/23 01:25:33;;;;;;;10.40;7.70;;;;;;;16.42;100.00;101796.50;2056038;28;20411;-61
2022/10/23 01:26:41;;;;;;;15.17;8.93;;;;;;;16.49;100.00;101795.50;2054317;28;21015;-61
2022/10/23 01:27:49;;;;;;;11.53;8.00;;;;;;;16.49;100.00;101789.91;2055873;28;20808;-61
2022/10/23 01:28:58;;;;;;;12.20;8.00;;;;;;;16.48;100.00;101815.53;2053378;28;20465;-61
2022/10/23 01:30:02;;;;;;;12.00;7.73;;;;;;;16.54;100.00;101797.75;2055668;28;20422;-60
2022/10/23 01:31:10;;;;;;;12.83;8.47;;;;;;;16.57;100.00;101804.47;2055667;28;20496;-61
2022/10/23 01:32:58;;;;;;;13.30;7.87;;;;;;;16.58;100.00;101803.25;2056377;28;20420;-61
2022/10/23 01:34:06;;;;;;;10.77;7.70;;;;;;;15.96;100.00;101703.94;2047769;29;21088;-61
2022/10/23 01:35:22;;;;;;;16.17;8.07;;;;;;;16.63;100.00;101811.84;2048339;29;20451;-61
2022/10/23 01:36:27;;;;;;;12.57;8.07;;;;;;;16.36;100.00;101761.88;2053708;28;20450;-61
2022/10/23 01:37:38;;;;;;;15.07;8.23;;;;;;;16.70;100.00;101817.25;2057293;28;20457;-61
2022/10/23 01:38:45;;;;;;;13.03;7.80;;;;;;;16.68;100.00;101812.09;2057467;28;20474;-61
2022/10/23 01:39:51;;;;;;;14.57;8.47;;;;;;;16.66;100.00;101813.78;2057184;28;21003;-62
2022/10/23 01:41:14;;;;;;;11.87;7.90;;;;;;;16.80;100.00;101821.75;2057440;28;20430;-61
2022/10/23 01:42:37;;;;;;;11.53;7.27;;;;;;;16.57;100.00;101773.69;2057614;28;20609;-61
2022/10/23 01:43:45;;;;;;;12.40;7.80;;;;;;;16.81;100.00;101815.69;2056192;28;20514;-61
2022/10/23 01:44:49;;;;;;;10.73;7.20;;;;;;;16.85;100.00;101827.56;2057920;28;20429;-61
2022/10/23 01:45:58;;;;;;;11.97;7.57;;;;;;;16.83;100.00;101829.25;2059110;28;20469;-61
2022/10/23 01:47:02;;;;;;;12.07;7.07;;;;;;;16.28;100.00;101749.31;2057301;28;20442;-61
2022/10/23 01:48:04;;;;;;;13.30;7.70;;;;;;;16.87;100.00;101835.53;2057274;28;20471;-61
2022/10/23 01:49:08;;;;;;;11.30;7.40;;;;;;;16.89;100.00;101824.66;2057083;28;20478;-60
2022/10/23 01:50:12;;;;;;;10.93;6.93;;;;;;;16.91;100.00;101836.97;2057051;28;20478;-61
2022/10/23 01:51:15;;;;;;;11.00;7.43;;;;;;;16.24;100.00;101726.25;2057401;28;20461;-61
2022/10/23 01:52:17;;;;;;;12.20;7.07;;;;;;;16.78;100.00;101819.41;2057349;28;20449;-61
2022/10/23 01:53:19;;;;;;;13.27;7.30;;;;;;;16.92;100.00;101832.97;2056855;28;20497;-61
2022/10/23 01:54:25;;;;;;;11.33;7.40;;;;;;;16.86;100.00;101819.97;2056713;28;20435;-60
2022/10/23 01:55:26;;;;;;;11.37;7.10;;;;;;;16.95;100.00;101834.09;2055631;28;20848;-62
2022/10/23 01:56:34;;;;;;;10.83;7.13;;;;;;;16.96;100.00;101830.06;2057091;28;20440;-60
2022/10/23 01:57:38;;;;;;;10.00;6.93;;;;;;;16.95;100.00;101834.09;2056959;28;20193;-61
2022/10/23 01:58:43;;;;;;;10.03;6.80;;;;;;;16.98;100.00;101833.97;2057297;28;20827;-62
2022/10/23 01:59:49;;;;;;;11.17;7.40;;;;;;;17.00;100.00;101841.94;2056260;28;20515;-60
2022/10/23 02:00:53;;;;;;;10.80;7.03;;;;;;;16.98;100.00;101833.19;2056510;28;20430;-61
2022/10/23 02:01:57;;;;;;;11.67;7.10;;;;;;;16.98;100.00;101829.63;2056237;28;21039;-61
2022/10/23 02:03:02;;;;;;;10.43;7.33;;;;;;;16.98;100.00;101836.78;2057365;28;20439;-61
2022/10/23 02:04:07;;;;;;;12.57;7.23;;;;;;;16.92;100.00;101841.38;2056737;28;20451;-61
2022/10/23 02:05:14;;;;;;;9.47;7.03;;;;;;;16.96;100.00;101839.22;2057240;28;20427;-61
2022/10/23 02:06:33;;;;;;;9.53;6.70;;;;;;;16.89;100.00;101841.47;2057095;28;20446;-60
2022/10/23 02:07:34;;;;;;;10.87;6.53;;;;;;;16.23;100.00;101749.88;2057203;28;20999;-60
2022/10/23 02:08:35;;;;;;;8.70;5.90;;;;;;;16.85;100.00;101832.41;2055951;28;20853;-61
2022/10/23 02:09:35;;;;;;;11.33;6.83;;;;;;;16.81;100.00;101829.69;2056528;28;20497;-61
2022/10/23 02:10:42;;;;;;;7.50;5.60;;;;;;;16.85;100.00;101830.38;2057140;28;20202;-61
2022/10/23 02:11:55;;;;;;;9.60;5.70;;;;;;;16.50;100.00;101763.50;2056853;28;20566;-60
2022/10/23 02:13:02;;;;;;;8.00;5.63;;;;;;;17.00;100.00;101825.91;2057100;28;20515;-60
2022/10/23 02:14:15;;;;;;;7.67;5.60;;;;;;;16.92;100.00;101827.38;2056087;28;20437;-61
2022/10/23 02:15:28;;;;;;;8.83;4.97;;;;;;;16.88;100.00;101828.69;2056769;28;20473;-61
2022/10/23 02:16:49;;;;;;;8.23;5.60;;;;;;;16.93;100.00;101826.13;2057519;28;20435;-61
2022/10/23 02:18:04;;;;;;;9.87;5.13;;;;;;;16.91;100.00;101825.00;2055621;28;20733;-61
2022/10/23 02:19:28;;;;;;;9.40;5.30;;;;;;;16.98;100.00;101831.19;2057020;28;20895;-61
2022/10/23 02:20:39;;;;;;;7.40;5.23;;;;;;;16.96;100.00;101830.81;2056454;28;20456;-61
2022/10/23 02:22:06;;;;;;;9.73;5.30;;;;;;;17.05;100.00;101830.94;2056863;28;20418;-61
2022/10/23 02:23:21;;;;;;;9.43;5.40;;;;;;;17.04;100.00;101820.19;2056762;28;20413;-61
2022/10/23 02:24:36;;;;;;;7.80;5.20;;;;;;;16.22;100.00;101706.34;2057047;28;20451;-62
2022/10/23 02:25:49;;;;;;;9.10;5.37;;;;;;;17.03;100.00;101841.81;2055761;28;20437;-61
2022/10/23 02:26:56;;;;;;;9.77;5.50;;;;;;;16.76;100.00;101787.47;2056461;28;20446;-61
2022/10/23 02:28:02;;;;;;;10.13;5.87;;;;;;;17.12;100.00;101833.50;2056983;28;20438;-61
2022/10/23 02:29:24;;;;;;;11.47;5.40;;;;;;;17.12;100.00;101841.16;2056638;28;20458;-61
2022/10/23 02:30:24;;;;;;;11.10;5.77;;;;;;;16.60;100.00;101754.75;2057088;28;20932;-60
2022/10/23 02:31:25;;;;;;;9.23;5.50;;;;;;;17.19;100.00;101838.09;2056992;28;20860;-61
2022/10/23 02:32:27;;;;;;;7.53;5.33;;;;;;;17.25;100.00;101842.72;2057057;28;20204;-62
2022/10/23 02:33:30;;;;;;;11.50;6.17;;;;;;;16.95;100.00;101797.69;2056065;28;20226;-61
2022/10/23 02:34:30;;;;;;;8.47;5.80;;;;;;;17.32;100.00;101847.31;2056720;28;20435;-60
2022/10/23 02:35:31;;;;;;;12.70;5.67;;;;;;;17.27;100.00;101845.84;2056944;28;20516;-61
2022/10/23 02:36:31;;;;;;;14.73;5.50;;;;;;;17.28;100.00;101852.25;2057021;28;20194;-61
2022/10/23 02:37:33;;;;;;;8.70;5.83;;;;;;;17.30;100.00;101856.16;2057116;28;20191;-61
2022/10/23 02:38:33;;;;;;;9.03;5.73;;;;;;;17.31;100.00;101856.97;2056655;28;20247;-62
2022/10/23 02:39:34;;;;;;;10.03;5.93;;;;;;;17.22;100.00;101842.84;2056895;28;20454;-61
2022/10/23 02:40:39;;;;;;;8.53;6.13;;;;;;;17.29;100.00;101865.81;2056632;28;20263;-61
2022/10/23 02:41:54;;;;;;;10.50;5.93;;;;;;;17.26;100.00;101883.50;2057023;28;20191;-61
2022/10/23 02:43:00;;;;;;;9.43;6.23;;;;;;;17.19;100.00;101866.13;2055906;28;20995;-61
2022/10/23 02:44:20;;;;;;;11.80;6.03;;;;;;;17.31;100.00;101873.78;2056803;28;20426;-61
2022/10/23 02:45:49;;;;;;;9.53;6.23;;;;;;;17.34;100.00;101868.03;2056969;28;20457;-61
2022/10/23 02:47:12;;;;;;;9.20;5.90;;;;;;;17.32;100.00;101867.69;2057303;28;20934;-61
2022/10/23 02:48:17;;;;;;;7.67;6.20;;;;;;;17.32;100.00;101878.91;2056832;28;20427;-62
2022/10/23 02:49:27;;;;;;;7.63;6.37;;;;;;;17.33;100.00;101865.69;2055464;28;20855;-62
2022/10/23 02:50:37;;;;;;;8.63;6.30;;;;;;;17.33;100.00;101880.50;2055612;28;21020;-61
2022/10/23 02:51:57;;;;;;;7.90;6.23;;;;;;;17.29;100.00;101865.81;2056739;28;20429;-60
2022/10/23 02:53:00;;;;;;;8.43;6.60;;;;;;;17.22;100.00;101863.22;2047609;28;20450;-61
2022/10/23 02:54:06;;;;;;;10.83;6.47;;;;;;;17.32;100.00;101869.72;2054303;28;20441;-61
2022/10/23 02:55:20;;;;;;;7.13;6.03;;;;;;;17.30;100.00;101872.16;2056883;28;20956;-62
2022/10/23 02:56:40;;;;;;;11.47;6.50;;;;;;;17.15;100.00;101854.25;2055741;28;20934;-61
2022/10/23 02:58:05;;;;;;;9.07;6.27;;;;;;;17.26;100.00;101868.72;2056741;28;20459;-61
2022/10/23 02:59:16;;;;;;;8.07;6.30;;;;;;;17.27;100.00;101867.47;2055984;28;21018;-61
2022/10/23 03:00:19;;;;;;;7.47;6.57;;;;;;;17.28;100.00;101871.84;2056489;28;20552;-62
2022/10/23 03:01:25;;;;;;;9.87;6.50;;;;;;;17.04;100.00;101865.78;2056807;28;20437;-61
2022/10/23 03:02:34;;;;;;;10.13;6.40;;;;;;;17.17;100.00;101869.38;2055843;28;20499;-61
2022/10/23 03:03:40;;;;;;;17.27;6.23;;;;;;;17.20;100.00;101876.09;2056237;28;20437;-60
2022/10/23 03:04:41;;;;;;;7.73;6.90;;;;;;;17.17;100.00;101880.56;2056230;28;20453;-60
2022/10/23 03:05:45;;;;;;;12.27;6.47;;;;;;;17.10;100.00;101878.00;2056519;28;20549;-61
2022/10/23 03:06:48;;;;;;;8.87;6.67;;;;;;;17.16;100.00;101892.25;2055546;28;20455;-61
2022/10/23 03:07:49;;;;;;;11.60;6.67;;;;;;;17.15;100.00;101885.06;2055467;28;20836;-61
2022/10/23 03:08:56;;;;;;;8.13;6.50;;;;;;;17.14;100.00;101884.28;2056186;28;20438;-60
2022/10/23 03:09:56;;;;;;;6.70;6.00;;;;;;;16.85;100.00;101846.41;2055426;28;20424;-61
2022/10/23 03:10:57;;;;;;;9.37;6.77;;;;;;;17.14;100.00;101897.50;2057094;28;20437;-62
2022/10/23 03:11:57;;;;;;;10.93;6.83;;;;;;;17.08;100.00;101897.28;2056656;28;20545;-61
2022/10/23 03:12:58;;;;;;;9.73;6.50;;;;;;;17.11;100.00;101901.97;2057175;28;20191;-61
2022/10/23 03:13:59;;;;;;;10.60;6.70;;;;;;;17.09;100.00;101900.84;2056226;28;20294;-61
2022/10/23 03:14:59;;;;;;;9.53;6.77;;;;;;;17.10;100.00;101903.22;2056954;28;20202;-61
2022/10/23 03:16:00;;;;;;;10.13;6.37;;;;;;;17.05;100.00;101900.97;2056635;28;20195;-61
2022/10/23 03:17:00;;;;;;;8.47;6.53;;;;;;;17.06;100.00;101905.31;2057103;28;20568;-61
2022/10/23 03:18:01;;;;;;;15.37;6.80;;;;;;;16.51;100.00;101846.22;2056341;28;20661;-61
2022/10/23 03:19:01;;;;;;;9.10;7.17;;;;;;;16.96;100.00;101914.84;2056753;28;20262;-61
2022/10/23 03:20:02;;;;;;;9.03;7.07;;;;;;;16.96;100.00;101923.22;2056393;28;20342;-61
2022/10/23 03:21:02;;;;;;;10.40;6.80;;;;;;;16.92;100.00;101913.38;2056765;28;20187;-61
2022/10/23 03:22:03;;;;;;;10.13;7.30;;;;;;;16.98;100.00;101911.59;2056591;28;20205;-60
2022/10/23 03:23:03;;;;;;;7.77;6.17;;;;;;;16.96;100.00;101922.47;2056510;28;20186;-61
2022/10/23 03:24:04;;;;;;;10.13;7.37;;;;;;;16.94;100.00;101922.91;2056246;28;20203;-61
2022/10/23 03:25:05;;;;;;;8.70;7.17;;;;;;;16.84;100.00;101909.19;2056726;28;20194;-60
2022/10/23 03:26:06;;;;;;;9.10;7.07;;;;;;;16.95;100.00;101932.09;2055755;28;20708;-60
2022/10/23 03:27:06;;;;;;;9.40;7.70;;;;;;;16.85;100.00;101919.19;2056405;28;20877;-61
2022/10/23 03:28:07;;;;;;;9.00;7.33;;;;;;;16.89;100.00;101936.66;2056341;28;20205;-60
2022/10/23 03:29:07;;;;;;;8.37;6.87;;;;;;;16.69;100.00;101903.25;2056475;28;20638;-61
2022/10/23 03:30:08;;;;;;;10.50;6.83;;;;;;;16.90;100.00;101947.41;2056540;28;20281;-60
2022/10/23 03:31:08;;;;;;;9.30;7.23;;;;;;;16.90;100.00;101952.25;2056598;28;20213;-61
2022/10/23 03:32:09;;;;;;;9.83;7.33;;;;;;;16.88;100.00;101951.13;2056878;28;20549;-61
2022/10/23 03:33:09;;;;;;;9.03;7.00;;;;;;;16.86;100.00;101957.16;2056192;28;20221;-61
2022/10/23 03:34:10;;;;;;;9.67;7.20;;;;;;;16.35;100.00;101883.38;2056409;28;20187;-61
2022/10/23 03:35:10;;;;;;;11.03;7.23;;;;;;;16.83;100.00;101964.44;2056701;28;20192;-61
2022/10/23 03:36:11;;;;;;;7.83;7.00;;;;;;;16.80;100.00;101968.09;2056452;28;20194;-61
2022/10/23 03:37:11;;;;;;;10.73;7.40;;;;;;;16.64;100.00;101956.19;2056668;28;20221;-61
2022/10/23 03:38:12;;;;;;;10.07;6.83;;;;;;;16.75;100.00;101970.69;2056217;28;20218;-61
2022/10/23 03:39:12;;;;;;;8.63;6.97;;;;;;;16.76;100.00;101973.00;2056468;28;20634;-61
2022/10/23 03:40:13;;;;;;;11.13;7.57;;;;;;;16.75;100.00;101970.69;2056260;28;20595;-61
2022/10/23 03:41:13;;;;;;;9.30;7.00;;;;;;;16.73;100.00;101975.16;2056273;28;20195;-61
2022/10/23 03:42:14;;;;;;;8.40;6.57;;;;;;;16.70;100.00;101974.78;2056723;28;20194;-61
2022/10/23 03:43:14;;;;;;;10.30;8.03;;;;;;;16.69;100.00;101978.03;2054986;28;20286;-61
2022/10/23 03:44:15;;;;;;;8.07;7.27;;;;;;;16.71;100.00;101984.75;2055501;28;20617;-62
2022/10/23 03:45:15;;;;;;;8.33;7.30;;;;;;;16.72;100.00;101982.75;2056564;28;20195;-61
2022/10/23 03:46:16;;;;;;;10.63;7.27;;;;;;;16.71;100.00;101978.38;2056460;28;20334;-61
2022/10/23 03:47:17;;;;;;;9.70;7.13;;;;;;;16.60;100.00;101975.88;2056259;28;20209;-61
2022/10/23 03:48:17;;;;;;;10.23;7.43;;;;;;;16.64;100.00;101976.56;2055864;28;20202;-61
2022/10/23 03:49:18;;;;;;;9.37;7.17;;;;;;;16.59;100.00;101979.91;2056503;28;20470;-61
2022/10/23 03:50:19;;;;;;;12.57;7.70;;;;;;;16.62;100.00;101983.06;2056297;28;20576;-61
2022/10/23 03:51:19;;;;;;;9.33;7.17;;;;;;;16.59;100.00;101991.09;2056085;28;20368;-61
2022/10/23 03:52:19;;;;;;;9.43;7.10;;;;;;;16.58;100.00;101985.94;2056766;28;20462;-61
2022/10/23 03:53:20;;;;;;;9.17;7.17;;;;;;;16.53;100.00;101983.66;2055862;28;20199;-61
2022/10/23 03:54:22;;;;;;;7.87;6.93;;;;;;;16.54;100.00;101988.81;2055602;28;20199;-61
2022/10/23 03:55:24;;;;;;;8.37;7.07;;;;;;;16.53;100.00;101990.06;2055255;28;20197;-61
2022/10/23 03:56:25;;;;;;;10.13;7.57;;;;;;;16.49;100.00;101986.56;2056649;28;20952;-61
2022/10/23 03:57:25;;;;;;;7.87;7.07;;;;;;;16.45;100.00;102005.44;2056071;28;20874;-61
2022/10/23 03:58:26;;;;;;;10.63;7.23;;;;;;;16.44;100.00;101986.31;2056378;28;20209;-61
2022/10/23 03:59:27;;;;;;;9.17;8.17;;;;;;;16.37;100.00;101997.66;2056534;28;20177;-60
2022/10/23 04:00:27;;;;;;;9.63;7.03;;;;;;;16.38;100.00;101994.41;2056488;28;20212;-60
2022/10/23 04:01:28;;;;;;;8.23;7.13;;;;;;;16.37;100.00;101987.25;2056200;28;20453;-60
2022/10/23 04:02:28;;;;;;;11.13;6.80;;;;;;;15.40;100.00;101836.78;2056626;28;20198;-60
2022/10/23 04:03:29;;;;;;;9.00;7.07;;;;;;;16.37;100.00;101992.84;2056103;28;20191;-60
2022/10/23 04:04:29;;;;;;;9.60;7.00;;;;;;;16.33;100.00;101986.56;2056566;28;20202;-60
2022/10/23 04:05:30;;;;;;;7.33;6.30;;;;;;;16.36;100.00;101994.09;2055600;28;20283;-60
2022/10/23 04:06:30;;;;;;;7.97;6.63;;;;;;;16.27;100.00;101993.13;2055753;28;20655;-61
2022/10/23 04:07:30;;;;;;;7.50;6.80;;;;;;;15.49;100.00;101888.03;2056031;28;20183;-60
2022/10/23 04:08:31;;;;;;;8.17;6.83;;;;;;;16.23;100.00;101989.63;2056488;28;20214;-61
2022/10/23 04:09:31;;;;;;;7.17;6.57;;;;;;;16.19;100.00;101989.72;2056154;28;20280;-61
2022/10/23 04:10:32;;;;;;;6.90;6.20;;;;;;;16.23;100.00;101992.41;2056268;28;20198;-61
2022/10/23 04:11:33;;;;;;;7.73;6.47;;;;;;;16.00;100.00;101959.06;2056128;28;20191;-61
2022/10/23 04:12:34;;;;;;;6.93;5.90;;;;;;;16.05;100.00;101978.91;2056380;28;20241;-61
2022/10/23 04:13:34;;;;;;;8.47;6.77;;;;;;;15.53;100.00;101899.13;2055322;28;20930;-61
2022/10/23 04:14:35;;;;;;;9.33;6.70;;;;;;;16.07;100.00;101995.22;2055639;28;20839;-61
2022/10/23 04:15:35;;;;;;;7.53;6.83;;;;;;;16.06;100.00;101988.06;2055823;28;20253;-61
2022/10/23 04:16:36;;;;;;;7.50;6.67;;;;;;;16.03;100.00;101989.72;2056454;28;20189;-61
2022/10/23 04:17:36;;;;;;;7.27;6.50;;;;;;;16.02;100.00;101990.94;2054545;28;20226;-60
2022/10/23 04:18:39;;;;;;;7.53;6.50;;;;;;;16.06;100.00;101993.66;2056359;28;20199;-61
2022/10/23 04:19:39;;;;;;;7.13;6.43;;;;;;;16.01;100.00;101986.59;2056283;28;20651;-62
2022/10/23 04:20:40;;;;;;;8.67;6.50;;;;;;;15.73;100.00;101945.31;2056406;28;20901;-61
2022/10/23 04:21:40;;;;;;;8.00;6.47;;;;;;;16.06;100.00;101991.66;2056121;28;20257;-61
2022/10/23 04:22:41;;;;;;;7.23;6.53;;;;;;;16.06;100.00;102000.03;2056257;28;20614;-60
2022/10/23 04:23:41;;;;;;;7.10;6.40;;;;;;;15.92;100.00;101991.19;2055598;28;20195;-62
2022/10/23 04:24:45;;;;;;;6.47;5.87;;;;;;;15.30;100.00;101911.19;2056021;28;20213;-60
2022/10/23 04:25:46;;;;;;;7.53;6.03;;;;;;;15.87;100.00;102009.28;2053915;28;20312;-61
2022/10/23 04:26:46;;;;;;;7.67;6.17;;;;;;;15.96;100.00;102017.88;2055450;28;20941;-61
2022/10/23 04:27:47;;;;;;;8.17;6.33;;;;;;;15.90;100.00;102019.63;2056071;28;20282;-61
2022/10/23 04:28:47;;;;;;;7.00;6.30;;;;;;;15.88;100.00;102032.44;2055857;28;20595;-61
2022/10/23 04:29:48;;;;;;;6.90;6.20;;;;;;;15.92;100.00;102022.75;2055356;28;20225;-61
2022/10/23 04:30:48;;;;;;;7.57;6.17;;;;;;;15.90;100.00;102030.78;2055396;28;20239;-61
2022/10/23 04:31:50;;;;;;;6.20;5.57;;;;;;;15.91;100.00;102039.94;2055554;28;20202;-61
2022/10/23 04:32:51;;;;;;;8.90;6.30;;;;;;;15.91;100.00;102046.34;2055326;28;20191;-61
2022/10/23 04:33:51;;;;;;;6.17;5.57;;;;;;;15.91;100.00;102046.34;2056109;28;20464;-61
2022/10/23 04:34:52;;;;;;;7.03;5.90;;;;;;;15.59;100.00;101992.38;2056105;28;20442;-61
2022/10/23 04:35:52;;;;;;;6.60;5.30;;;;;;;15.92;100.00;102049.91;2056061;28;20214;-61
2022/10/23 04:36:53;;;;;;;6.83;5.90;;;;;;;15.92;100.00;102058.28;2056015;28;20194;-60
2022/10/23 04:37:53;;;;;;;6.50;5.90;;;;;;;15.95;100.00;102063.03;2055990;28;20691;-61
2022/10/23 04:38:54;;;;;;;5.93;5.33;;;;;;;15.98;100.00;102059.38;2056238;28;20191;-60
2022/10/23 04:39:54;;;;;;;5.60;5.10;;;;;;;15.98;100.00;102062.19;2055735;28;20212;-61
2022/10/23 04:40:54;;;;;;;6.77;5.10;;;;;;;15.98;100.00;102062.94;2056268;28;20182;-60
2022/10/23 04:41:55;;;;;;;6.13;5.57;;;;;;;16.00;100.00;102062.50;2056176;28;20269;-61
2022/10/23 04:42:55;;;;;;;5.63;5.03;;;;;;;15.53;100.00;101994.13;2055973;28;20194;-61
2022/10/23 04:43:56;;;;;;;6.70;5.97;;;;;;;16.00;100.00;102059.72;2055830;28;20644;-61
2022/10/23 04:44:56;;;;;;;7.83;5.40;;;;;;;15.99;100.00;102060.94;2054710;28;20195;-61
2022/10/23 04:45:57;;;;;;;6.73;5.90;;;;;;;15.99;100.00;102066.53;2056096;28;20198;-61
2022/10/23 04:46:57;;;;;;;8.70;5.90;;;;;;;15.99;100.00;102058.91;2055817;28;20223;-62
2022/10/23 04:47:58;;;;;;;17.43;6.30;;;;;;;15.91;100.00;102049.13;2055556;28;20268;-61
2022/10/23 04:48:58;;;;;;;14.93;6.50;;;;;;;15.94;100.00;102053.06;2055723;28;20245;-61
2022/10/23 04:49:59;;;;;;;7.17;4.57;;;;;;;15.25;100.00;101967.56;2055569;28;20203;-61
2022/10/23 04:51:02;;;;;;;7.93;4.90;;;;;;;15.75;100.00;102042.72;2056336;28;20647;-60
2022/10/23 04:52:03;;;;;;;5.80;5.03;;;;;;;15.89;100.00;102048.75;2056177;28;20190;-61
2022/10/23 04:53:03;;;;;;;5.17;4.43;;;;;;;15.85;100.00;102055.66;2055462;28;20975;-61
2022/10/23 04:54:04;;;;;;;4.50;4.10;;;;;;;15.86;100.00;102046.84;2055619;28;20192;-61
2022/10/23 04:55:06;;;;;;;5.83;4.23;;;;;;;15.84;100.00;102046.47;2055894;28;20183;-60